Terminal Aerodrome Forecast
Issued by NWS

Home | Current Version | Previous Version | Text Only | Print | Product List | Glossary On
Versions: 1 2 3 4 5 6 7 8 9 10 11 12 13
000
FTUS45 KABQ 191100 RRA
TAFGUP
TAF
KGUP 191142Z 1912/2012 VRB04KT P6SM BKN070
     FM192100 22007KT P6SM VCTS BKN060CB
     FM200000 24010KT P6SM VCSH BKN060
     FM200300 20006KT P6SM SCT060 BKN100=

USA.gov is the U.S. government's official web portal to all federal, state and local government web resources and services.